createdAt,value
2022-12-04T00:00:26.434Z,99799.31
2022-12-04T00:01:28.767Z,99805.47
2022-12-04T00:02:30.400Z,99801.25
2022-12-04T00:03:31.800Z,99798.59
2022-12-04T00:04:33.248Z,99807.34
2022-12-04T00:05:34.721Z,99811.94
2022-12-04T00:06:36.269Z,99806.75
2022-12-04T00:07:37.710Z,99803.19
2022-12-04T00:08:39.702Z,99795.50
2022-12-04T00:09:41.098Z,99798.31
2022-12-04T00:10:43.272Z,99799.16
2022-12-04T00:11:44.625Z,99800.72
2022-12-04T00:12:46.026Z,99802.34
2022-12-04T00:13:47.761Z,99801.31
2022-12-04T00:15:23.383Z,99789.94
2022-12-04T00:16:15.506Z,99787.63
2022-12-04T00:17:16.915Z,99796.38
2022-12-04T00:18:18.290Z,99793.78
2022-12-04T00:19:19.652Z,99793.19
2022-12-04T00:20:21.064Z,99789.22
2022-12-04T00:21:23.286Z,99786.78
2022-12-04T00:22:24.671Z,99789.28
2022-12-04T00:23:26.052Z,99781.50
2022-12-04T00:24:27.524Z,99784.28
2022-12-04T00:25:30.547Z,99784.28
2022-12-04T00:26:31.975Z,99786.16
2022-12-04T00:27:33.362Z,99785.44
2022-12-04T00:28:35.279Z,99782.00
2022-12-04T00:29:36.824Z,99784.13
2022-12-04T00:30:40.753Z,99785.03
2022-12-04T00:31:42.125Z,99783.44
2022-12-04T00:32:43.542Z,99787.03
2022-12-04T00:33:45.545Z,99784.47
2022-12-04T00:34:46.970Z,99780.16
2022-12-04T00:35:48.321Z,99776.84
2022-12-04T00:36:49.678Z,99775.16
2022-12-04T00:37:51.234Z,99773.22
2022-12-04T00:38:52.814Z,99779.16
2022-12-04T00:39:54.507Z,99774.97
2022-12-04T00:40:56.156Z,99774.38
2022-12-04T00:41:57.538Z,99774.28
2022-12-04T00:42:58.886Z,99777.63
2022-12-04T00:44:00.836Z,99782.66
2022-12-04T00:45:02.281Z,99779.97
2022-12-04T00:46:03.673Z,99778.34
2022-12-04T00:47:05.069Z,99775.81
2022-12-04T00:48:06.401Z,99788.13
2022-12-04T00:49:07.759Z,99786.34
2022-12-04T00:50:09.382Z,99785.41
2022-12-04T00:51:12.656Z,99785.22
2022-12-04T00:52:14.046Z,99786.94
2022-12-04T00:53:15.425Z,99789.38
2022-12-04T00:54:16.780Z,99783.34
2022-12-04T00:55:18.171Z,99787.75
2022-12-04T00:56:21.192Z,99787.63
2022-12-04T00:57:22.570Z,99783.53
2022-12-04T00:58:23.981Z,99777.44
2022-12-04T00:59:25.464Z,99780.81
2022-12-04T01:00:26.885Z,99789.81
2022-12-04T01:01:28.858Z,99780.03
2022-12-04T01:02:30.490Z,99787.09
2022-12-04T01:03:32.100Z,99774.06
2022-12-04T01:04:33.524Z,99771.78
2022-12-04T01:05:38.458Z,99771.81
2022-12-04T01:06:39.838Z,99767.69
2022-12-04T01:07:41.277Z,99761.69
2022-12-04T01:08:42.644Z,99762.41
2022-12-04T01:09:44.082Z,99762.31
2022-12-04T01:10:45.489Z,99759.78
2022-12-04T01:11:47.030Z,99764.28
2022-12-04T01:12:51.820Z,99767.59
2022-12-04T01:13:53.262Z,99766.88
2022-12-04T01:14:54.643Z,99765.13
2022-12-04T01:15:56.023Z,99773.09
2022-12-04T01:16:57.478Z,99764.75
2022-12-04T01:17:58.845Z,99761.03
2022-12-04T01:19:00.200Z,99765.38
2022-12-04T01:20:01.606Z,99765.38
2022-12-04T01:21:03.317Z,99765.38
2022-12-04T01:22:04.690Z,99763.59
2022-12-04T01:23:06.195Z,99753.31
2022-12-04T01:24:08.014Z,99753.56
2022-12-04T01:25:09.639Z,99759.78
2022-12-04T01:26:11.014Z,99758.06
2022-12-04T01:27:12.412Z,99769.13
2022-12-04T01:28:13.764Z,99772.75
2022-12-04T01:29:15.174Z,99762.47
2022-12-04T01:30:16.670Z,99760.72
2022-12-04T01:31:19.192Z,99763.25
2022-12-04T01:32:20.644Z,99759.09
2022-12-04T01:33:21.985Z,99756.59
2022-12-04T01:34:23.356Z,99751.41
2022-12-04T01:35:24.776Z,99747.94
2022-12-04T01:36:27.679Z,99747.78
2022-12-04T01:37:30.449Z,99752.09
2022-12-04T01:38:31.853Z,99751.19
2022-12-04T01:39:35.690Z,99752.22
2022-12-04T01:40:37.074Z,99747.78
2022-12-04T01:41:38.417Z,99752.00
2022-12-04T01:42:39.780Z,99760.78
2022-12-04T01:43:41.603Z,99757.38
2022-12-04T01:44:44.435Z,99747.91
2022-12-04T01:45:47.636Z,99750.41
2022-12-04T01:46:53.435Z,99747.78
2022-12-04T01:47:56.144Z,99745.19
2022-12-04T01:48:57.537Z,99744.41
2022-12-04T01:49:59.401Z,99748.69
2022-12-04T01:51:11.816Z,99746.31
2022-12-04T01:52:21.283Z,99751.56
2022-12-04T01:53:22.749Z,99745.53
2022-12-04T01:54:34.069Z,99744.75
2022-12-04T01:55:35.547Z,99735.28
2022-12-04T01:56:45.016Z,99742.47
2022-12-04T01:57:46.397Z,99735.69
2022-12-04T01:58:51.269Z,99740.88
2022-12-04T01:59:56.268Z,99732.44
2022-12-04T02:01:06.504Z,99735.97
2022-12-04T02:02:11.720Z,99731.66
2022-12-04T02:03:13.423Z,99735.63
2022-12-04T02:04:14.882Z,99735.69
2022-12-04T02:05:18.212Z,99733.22
2022-12-04T02:06:19.567Z,99738.41
2022-12-04T02:07:20.943Z,99737.50
2022-12-04T02:08:22.473Z,99743.72
2022-12-04T02:09:26.850Z,99745.53
2022-12-04T02:10:37.062Z,99754.19
2022-12-04T02:11:38.415Z,99750.75
2022-12-04T02:12:49.524Z,99753.28
2022-12-04T02:13:56.655Z,99752.44
2022-12-04T02:15:16.253Z,99758.03
2022-12-04T02:16:25.870Z,99749.47
2022-12-04T02:17:46.623Z,99751.19
2022-12-04T02:19:06.600Z,99745.91
2022-12-04T02:20:14.180Z,99746.25
2022-12-04T02:21:26.201Z,99744.63
2022-12-04T02:22:30.589Z,99735.75
2022-12-04T02:23:50.417Z,99736.53
2022-12-04T02:24:57.724Z,99741.69
2022-12-04T02:25:59.041Z,99739.19
2022-12-04T02:27:03.508Z,99737.59
2022-12-04T02:28:09.140Z,99735.66
2022-12-04T02:29:10.470Z,99741.59
2022-12-04T02:30:13.236Z,99733.69
2022-12-04T02:31:18.880Z,99725.88
2022-12-04T02:32:20.314Z,99727.56
2022-12-04T02:33:36.968Z,99727.50
2022-12-04T02:34:43.515Z,99726.47
2022-12-04T02:36:05.142Z,99724.06
2022-12-04T02:37:10.663Z,99720.63
2022-12-04T02:38:17.269Z,99717.06
2022-12-04T02:39:21.289Z,99721.34
2022-12-04T02:40:31.260Z,99728.16
2022-12-04T02:41:52.873Z,99722.13
2022-12-04T02:43:03.765Z,99715.44
2022-12-04T02:44:08.909Z,99717.25
2022-12-04T02:45:13.674Z,99719.84
2022-12-04T02:46:19.275Z,99722.22
2022-12-04T02:47:22.738Z,99721.72
2022-12-04T02:48:26.198Z,99719.97
2022-12-04T02:49:37.113Z,99720.97
2022-12-04T02:50:40.357Z,99717.50
2022-12-04T02:51:43.200Z,99718.44
2022-12-04T02:52:47.823Z,99728.06
2022-12-04T02:53:57.856Z,99721.28
2022-12-04T02:55:08.204Z,99729.88
2022-12-04T02:56:15.601Z,99722.88
2022-12-04T02:57:20.113Z,99719.22
2022-12-04T02:58:25.728Z,99724.66
2022-12-04T02:59:38.002Z,99725.44
2022-12-04T03:00:41.276Z,99722.53
2022-12-04T03:01:45.441Z,99725.91
2022-12-04T03:02:56.271Z,99727.78
2022-12-04T03:04:04.043Z,99738.25
2022-12-04T03:05:09.201Z,99736.53
2022-12-04T03:06:11.883Z,99734.03
2022-12-04T03:07:15.559Z,99736.28
2022-12-04T03:08:19.774Z,99736.22
2022-12-04T03:09:24.948Z,99739.78
2022-12-04T03:10:30.104Z,99733.38
2022-12-04T03:11:34.081Z,99737.59
2022-12-04T03:12:38.450Z,99729.88
2022-12-04T03:14:00.072Z,99734.94
2022-12-04T03:15:03.477Z,99738.34
2022-12-04T03:16:11.129Z,99733.19
2022-12-04T03:17:21.028Z,99726.25
2022-12-04T03:18:26.182Z,99725.31
2022-12-04T03:19:34.137Z,99732.06
2022-12-04T03:20:36.894Z,99722.66
2022-12-04T03:21:41.477Z,99736.53
2022-12-04T03:22:45.924Z,99736.41
2022-12-04T03:23:55.930Z,99743.22
2022-12-04T03:24:57.484Z,99743.06
2022-12-04T03:26:31.411Z,99738.69
2022-12-04T03:27:46.251Z,99737.50
2022-12-04T03:28:53.357Z,99739.13
2022-12-04T03:29:57.894Z,99742.34
2022-12-04T03:31:03.426Z,99734.56
2022-12-04T03:32:25.070Z,99735.47
2022-12-04T03:33:30.357Z,99729.38
2022-12-04T03:34:51.968Z,99728.34
2022-12-04T03:35:59.745Z,99723.16
2022-12-04T03:37:09.250Z,99732.56
2022-12-04T03:38:29.118Z,99735.28
2022-12-04T03:39:35.841Z,99730.84
2022-12-04T03:40:39.816Z,99729.34
2022-12-04T03:42:13.713Z,99731.19
2022-12-04T03:43:19.869Z,99725.41
2022-12-04T03:44:43.971Z,99731.38
2022-12-04T03:45:48.475Z,99722.66
2022-12-04T03:46:52.476Z,99728.03
2022-12-04T03:47:58.911Z,99722.25
2022-12-04T03:49:00.291Z,99719.63
2022-12-04T03:50:04.220Z,99721.34
2022-12-04T03:51:17.708Z,99721.34
2022-12-04T03:52:37.880Z,99719.44
2022-12-04T03:53:45.801Z,99719.63
2022-12-04T03:54:50.222Z,99720.75
2022-12-04T03:56:00.008Z,99718.09
2022-12-04T03:57:03.296Z,99724.72
2022-12-04T03:58:07.348Z,99729.13
2022-12-04T03:59:19.483Z,99733.56
2022-12-04T04:00:21.714Z,99730.88
2022-12-04T04:01:26.101Z,99729.06
2022-12-04T04:02:30.250Z,99725.09
2022-12-04T04:03:33.983Z,99725.13
2022-12-04T04:04:36.651Z,99720.63
2022-12-04T04:05:41.994Z,99719.66
2022-12-04T04:06:49.070Z,99726.44
2022-12-04T04:07:55.850Z,99721.34
2022-12-04T04:08:59.904Z,99730.94
2022-12-04T04:10:05.772Z,99718.75
2022-12-04T04:11:13.525Z,99719.78
2022-12-04T04:12:26.821Z,99724.78
2022-12-04T04:13:34.423Z,99726.97
2022-12-04T04:14:41.312Z,99726.78
2022-12-04T04:15:45.796Z,99724.81
2022-12-04T04:16:49.191Z,99732.28
2022-12-04T04:17:51.092Z,99720.91
2022-12-04T04:18:54.008Z,99715.66
2022-12-04T04:20:02.572Z,99714.69
2022-12-04T04:21:04.188Z,99731.16
2022-12-04T04:22:07.495Z,99718.97
2022-12-04T04:23:11.304Z,99723.25
2022-12-04T04:24:21.810Z,99724.31
2022-12-04T04:25:24.745Z,99717.47
2022-12-04T04:26:27.690Z,99716.56
2022-12-04T04:27:29.101Z,99718.25
2022-12-04T04:28:30.420Z,99717.41
2022-12-04T04:29:31.852Z,99727.03
2022-12-04T04:30:34.849Z,99725.50
2022-12-04T04:31:36.216Z,99720.41
2022-12-04T04:32:52.725Z,99725.88
2022-12-04T04:34:02.114Z,99720.72
2022-12-04T04:35:07.828Z,99714.09
2022-12-04T04:36:15.003Z,99715.81
2022-12-04T04:37:34.728Z,99719.53
2022-12-04T04:38:56.619Z,99721.44
2022-12-04T04:40:13.123Z,99718.84
2022-12-04T04:41:19.799Z,99716.41
2022-12-04T04:42:23.703Z,99723.44
2022-12-04T04:43:43.980Z,99723.44
2022-12-04T04:44:53.739Z,99723.00
2022-12-04T04:45:58.989Z,99716.97
2022-12-04T04:47:04.441Z,99708.25
2022-12-04T04:48:05.795Z,99722.97
2022-12-04T04:49:10.158Z,99722.34
2022-12-04T04:50:12.451Z,99710.06
2022-12-04T04:51:14.096Z,99717.81
2022-12-04T04:52:17.430Z,99710.06
2022-12-04T04:53:21.416Z,99703.97
2022-12-04T04:54:23.325Z,99710.91
2022-12-04T04:55:24.683Z,99702.41
2022-12-04T04:56:26.060Z,99712.03
2022-12-04T04:57:28.537Z,99714.56
2022-12-04T04:58:29.938Z,99706.06
2022-12-04T04:59:31.339Z,99710.69
2022-12-04T05:00:32.732Z,99712.47
2022-12-04T05:01:34.217Z,99703.19
2022-12-04T05:02:35.702Z,99711.09
2022-12-04T05:03:37.209Z,99716.25
2022-12-04T05:04:38.553Z,99717.72
2022-12-04T05:05:39.914Z,99716.88
2022-12-04T05:06:41.322Z,99713.16
2022-12-04T05:07:42.871Z,99713.09
2022-12-04T05:08:44.282Z,99711.13
2022-12-04T05:09:45.644Z,99710.31
2022-12-04T05:10:47.027Z,99711.13
2022-12-04T05:11:48.403Z,99715.25
2022-12-04T05:12:49.772Z,99713.25
2022-12-04T05:13:51.344Z,99714.81
2022-12-04T05:14:52.714Z,99712.97
2022-12-04T05:16:01.454Z,99715.84
2022-12-04T05:17:07.843Z,99712.53
2022-12-04T05:18:13.868Z,99723.06
2022-12-04T05:19:15.253Z,99722.16
2022-12-04T05:20:16.796Z,99718.06
2022-12-04T05:21:18.157Z,99713.72
2022-12-04T05:22:30.303Z,99714.91
2022-12-04T05:23:31.660Z,99715.81
2022-12-04T05:24:33.053Z,99717.50
2022-12-04T05:25:34.424Z,99716.53
2022-12-04T05:26:36.296Z,99708.94
2022-12-04T05:27:37.636Z,99710.63
2022-12-04T05:28:38.997Z,99714.06
2022-12-04T05:29:40.453Z,99709.84
2022-12-04T05:30:41.941Z,99717.63
2022-12-04T05:31:43.412Z,99709.13
2022-12-04T05:32:44.851Z,99716.59
2022-12-04T05:33:46.244Z,99715.66
2022-12-04T05:34:48.542Z,99727.56
2022-12-04T05:36:16.067Z,99720.66
2022-12-04T05:37:17.414Z,99718.94
2022-12-04T05:38:18.803Z,99724.13
2022-12-04T05:39:20.168Z,99725.03
2022-12-04T05:40:21.550Z,99727.84
2022-12-04T05:41:23.077Z,99730.56
2022-12-04T05:42:24.423Z,99728.13
2022-12-04T05:43:26.180Z,99729.94
2022-12-04T05:44:27.525Z,99733.34
2022-12-04T05:45:28.866Z,99732.41
2022-12-04T05:46:30.239Z,99736.69
2022-12-04T05:47:31.633Z,99732.28
2022-12-04T05:48:33.461Z,99737.47
2022-12-04T05:49:35.304Z,99736.63
2022-12-04T05:50:38.124Z,99744.41
2022-12-04T05:51:39.511Z,99741.69
2022-12-04T05:52:40.866Z,99746.00
2022-12-04T05:53:42.222Z,99741.56
2022-12-04T05:54:43.657Z,99750.13
2022-12-04T05:55:45.064Z,99744.03
2022-12-04T05:56:46.660Z,99736.91
2022-12-04T05:57:48.001Z,99736.84
2022-12-04T05:58:49.347Z,99741.13
2022-12-04T05:59:50.895Z,99735.09
2022-12-04T06:00:52.780Z,99734.94
2022-12-04T06:01:54.179Z,99737.34
2022-12-04T06:02:55.648Z,99728.63
2022-12-04T06:03:57.074Z,99739.72
2022-12-04T06:04:58.452Z,99736.22
2022-12-04T06:05:59.816Z,99734.41
2022-12-04T06:07:01.175Z,99736.16
2022-12-04T06:08:02.620Z,99745.69
2022-12-04T06:09:04.968Z,99749.91
2022-12-04T06:10:06.818Z,99742.03
2022-12-04T06:11:12.321Z,99741.00
2022-12-04T06:12:13.701Z,99734.59
2022-12-04T06:13:15.075Z,99745.25
2022-12-04T06:14:16.405Z,99744.22
2022-12-04T06:15:17.811Z,99748.44
2022-12-04T06:16:20.951Z,99748.41
2022-12-04T06:17:22.334Z,99734.75
2022-12-04T06:18:23.700Z,99740.69
2022-12-04T06:19:25.108Z,99738.22
2022-12-04T06:20:26.562Z,99739.03
2022-12-04T06:21:29.413Z,99742.47
2022-12-04T06:22:30.786Z,99739.94
2022-12-04T06:23:32.131Z,99744.28
2022-12-04T06:24:33.482Z,99747.94
2022-12-04T06:25:34.824Z,99746.25
2022-12-04T06:26:36.283Z,99750.63
2022-12-04T06:27:37.664Z,99744.78
2022-12-04T06:28:39.011Z,99748.56
2022-12-04T06:29:40.364Z,99748.44
2022-12-04T06:30:41.754Z,99753.56
2022-12-04T06:31:43.282Z,99756.31
2022-12-04T06:32:44.677Z,99752.84
2022-12-04T06:33:46.898Z,99752.84
2022-12-04T06:34:54.494Z,99749.22
2022-12-04T06:36:15.506Z,99746.88
2022-12-04T06:37:16.914Z,99747.94
2022-12-04T06:38:18.306Z,99746.13
2022-12-04T06:39:19.714Z,99733.47
2022-12-04T06:40:21.105Z,99739.44
2022-12-04T06:41:22.972Z,99742.97
2022-12-04T06:42:24.393Z,99736.19
2022-12-04T06:43:25.790Z,99745.78
2022-12-04T06:44:27.192Z,99741.59
2022-12-04T06:45:28.607Z,99744.94
2022-12-04T06:46:31.573Z,99741.16
2022-12-04T06:47:33.964Z,99745.41
2022-12-04T06:48:35.955Z,99749.03
2022-12-04T06:49:37.425Z,99749.00
2022-12-04T06:50:38.827Z,99749.13
2022-12-04T06:51:40.207Z,99750.56
2022-12-04T06:52:41.596Z,99755.59
2022-12-04T06:53:43.586Z,99753.03
2022-12-04T06:54:44.982Z,99748.94
2022-12-04T06:55:49.197Z,99751.47
2022-12-04T06:56:50.668Z,99754.91
2022-12-04T06:57:52.052Z,99754.81
2022-12-04T06:58:55.399Z,99750.69
2022-12-04T06:59:57.120Z,99754.34
2022-12-04T07:00:59.286Z,99744.84
2022-12-04T07:02:00.751Z,99743.13
2022-12-04T07:03:02.158Z,99745.41
2022-12-04T07:04:04.057Z,99747.78
2022-12-04T07:05:05.846Z,99754.41
2022-12-04T07:06:26.708Z,99758.97
2022-12-04T07:07:28.091Z,99758.84
2022-12-04T07:08:29.472Z,99760.47
2022-12-04T07:09:30.846Z,99760.44
2022-12-04T07:10:32.245Z,99756.03
2022-12-04T07:11:34.286Z,99761.38
2022-12-04T07:12:35.684Z,99763.03
2022-12-04T07:13:37.097Z,99774.28
2022-12-04T07:14:38.481Z,99770.69
2022-12-04T07:15:39.875Z,99766.06
2022-12-04T07:16:42.378Z,99773.78
2022-12-04T07:17:43.992Z,99772.31
2022-12-04T07:18:45.482Z,99771.63
2022-12-04T07:19:46.900Z,99772.75
2022-12-04T07:20:48.274Z,99774.56
2022-12-04T07:21:49.653Z,99771.53
2022-12-04T07:22:51.038Z,99771.25
2022-12-04T07:23:53.699Z,99771.41
2022-12-04T07:24:55.068Z,99770.00
2022-12-04T07:25:56.421Z,99760.56
2022-12-04T07:26:57.859Z,99761.25
2022-12-04T07:27:59.243Z,99763.97
2022-12-04T07:29:00.634Z,99759.66
2022-12-04T07:30:02.027Z,99756.22
2022-12-04T07:31:10.638Z,99758.81
2022-12-04T07:32:12.105Z,99752.16
2022-12-04T07:33:13.507Z,99747.06
2022-12-04T07:34:14.843Z,99753.00
2022-12-04T07:35:16.291Z,99750.25
2022-12-04T07:36:19.095Z,99756.22
2022-12-04T07:37:20.490Z,99754.41
2022-12-04T07:38:21.862Z,99746.88
2022-12-04T07:39:23.196Z,99755.59
2022-12-04T07:40:24.799Z,99757.38
2022-12-04T07:41:26.251Z,99744.41
2022-12-04T07:42:28.213Z,99754.63
2022-12-04T07:43:30.868Z,99748.59
2022-12-04T07:44:32.212Z,99744.28
2022-12-04T07:45:33.643Z,99748.44
2022-12-04T07:46:35.163Z,99745.13
2022-12-04T07:47:36.623Z,99750.13
2022-12-04T07:48:38.012Z,99754.34
2022-12-04T07:49:39.880Z,99758.47
2022-12-04T07:50:41.259Z,99760.81
2022-12-04T07:51:42.665Z,99762.50
2022-12-04T07:52:44.043Z,99756.47
2022-12-04T07:53:45.671Z,99759.91
2022-12-04T07:54:47.042Z,99752.09
2022-12-04T07:55:51.922Z,99753.91
2022-12-04T07:56:53.340Z,99757.41
2022-12-04T07:57:54.734Z,99755.66
2022-12-04T07:58:56.115Z,99749.56
2022-12-04T07:59:57.809Z,99754.94
2022-12-04T08:01:12.249Z,99759.25
2022-12-04T08:02:13.913Z,99756.47
2022-12-04T08:03:15.306Z,99761.81
2022-12-04T08:04:16.730Z,99760.78
2022-12-04T08:05:18.233Z,99760.94
2022-12-04T08:06:20.890Z,99759.38
2022-12-04T08:07:22.259Z,99762.69
2022-12-04T08:08:23.629Z,99769.50
2022-12-04T08:09:24.999Z,99767.63
2022-12-04T08:10:26.430Z,99768.50
2022-12-04T08:11:27.844Z,99781.38
2022-12-04T08:12:31.102Z,99774.47
2022-12-04T08:13:32.485Z,99775.19
2022-12-04T08:14:33.923Z,99783.75
2022-12-04T08:15:35.445Z,99778.28
2022-12-04T08:16:37.184Z,99774.84
2022-12-04T08:17:38.618Z,99778.94
2022-12-04T08:18:40.250Z,99781.38
2022-12-04T08:19:41.667Z,99773.56
2022-12-04T08:20:43.285Z,99769.19
2022-12-04T08:21:44.671Z,99780.38
2022-12-04T08:22:46.038Z,99782.09
2022-12-04T08:23:47.889Z,99778.66
2022-12-04T08:24:49.251Z,99775.13
2022-12-04T08:25:50.615Z,99774.94
2022-12-04T08:26:51.997Z,99773.91
2022-12-04T08:27:53.371Z,99774.00
2022-12-04T08:28:55.389Z,99772.22
2022-12-04T08:29:57.014Z,99778.16
2022-12-04T08:31:02.680Z,99772.97
2022-12-04T08:32:04.215Z,99765.97
2022-12-04T08:33:05.575Z,99771.22
2022-12-04T08:34:07.513Z,99775.69
2022-12-04T08:35:08.988Z,99777.50
2022-12-04T08:36:12.347Z,99777.41
2022-12-04T08:37:13.715Z,99777.19
2022-12-04T08:38:15.085Z,99771.94
2022-12-04T08:39:16.584Z,99777.41
2022-12-04T08:40:17.946Z,99778.66
2022-12-04T08:41:20.312Z,99784.66
2022-12-04T08:42:21.654Z,99778.47
2022-12-04T08:43:23.022Z,99775.81
2022-12-04T08:44:24.425Z,99777.50
2022-12-04T08:45:25.872Z,99780.16
2022-12-04T08:46:27.689Z,99789.63
2022-12-04T08:47:29.192Z,99783.66
2022-12-04T08:48:31.218Z,99780.16
2022-12-04T08:49:32.600Z,99779.28
2022-12-04T08:50:33.963Z,99778.28
2022-12-04T08:51:35.717Z,99775.44
2022-12-04T08:52:37.067Z,99782.06
2022-12-04T08:53:38.470Z,99778.44
2022-12-04T08:54:39.907Z,99774.03
2022-12-04T08:55:41.296Z,99776.53
2022-12-04T08:56:42.697Z,99773.03
2022-12-04T08:57:44.089Z,99775.56
2022-12-04T08:58:45.425Z,99777.31
2022-12-04T08:59:46.790Z,99773.09
2022-12-04T09:00:48.191Z,99780.81
2022-12-04T09:01:50.427Z,99780.69
2022-12-04T09:02:51.852Z,99794.56
2022-12-04T09:03:53.622Z,99795.34
2022-12-04T09:04:55.198Z,99795.28
2022-12-04T09:05:58.795Z,99793.66
2022-12-04T09:07:00.234Z,99791.97
2022-12-04T09:08:01.664Z,99791.25
2022-12-04T09:09:03.469Z,99790.34
2022-12-04T09:10:05.147Z,99786.84
2022-12-04T09:11:07.687Z,99789.41
2022-12-04T09:12:09.083Z,99790.28
2022-12-04T09:13:10.538Z,99784.38
2022-12-04T09:14:12.171Z,99793.69
2022-12-04T09:15:13.871Z,99782.19
2022-12-04T09:16:16.712Z,99782.84
2022-12-04T09:17:18.126Z,99775.06
2022-12-04T09:18:19.499Z,99781.06
2022-12-04T09:19:21.025Z,99788.00
2022-12-04T09:20:22.501Z,99785.44
2022-12-04T09:21:24.864Z,99786.53
2022-12-04T09:22:26.281Z,99782.25
2022-12-04T09:23:27.920Z,99779.56
2022-12-04T09:24:29.922Z,99777.00
2022-12-04T09:25:31.725Z,99783.09
2022-12-04T09:26:33.469Z,99777.91
2022-12-04T09:27:38.528Z,99774.59
2022-12-04T09:28:39.892Z,99768.59
2022-12-04T09:29:41.265Z,99770.16
2022-12-04T09:30:42.681Z,99775.19
2022-12-04T09:31:44.106Z,99774.16
2022-12-04T09:32:45.538Z,99756.91
2022-12-04T09:33:47.343Z,99770.78
2022-12-04T09:34:52.721Z,99771.66
2022-12-04T09:35:54.742Z,99775.16
2022-12-04T09:36:56.152Z,99772.69
2022-12-04T09:37:57.501Z,99766.66
2022-12-04T09:38:59.011Z,99770.09
2022-12-04T09:40:00.412Z,99764.91
2022-12-04T09:41:07.726Z,99769.28
2022-12-04T09:42:17.949Z,99766.81
2022-12-04T09:43:28.183Z,99766.88
2022-12-04T09:44:31.564Z,99763.31
2022-12-04T09:45:41.170Z,99766.59
2022-12-04T09:46:51.880Z,99762.31
2022-12-04T09:47:56.274Z,99762.53
2022-12-04T09:49:02.102Z,99761.59
2022-12-04T09:50:05.982Z,99748.53
2022-12-04T09:51:09.747Z,99747.53
2022-12-04T09:52:30.079Z,99750.00
2022-12-04T09:53:46.770Z,99742.88
2022-12-04T09:54:48.877Z,99746.31
2022-12-04T09:56:02.103Z,99745.63
2022-12-04T09:57:10.610Z,99738.66
2022-12-04T09:58:17.904Z,99745.34
2022-12-04T09:59:27.403Z,99732.19
2022-12-04T10:00:29.791Z,99730.44
2022-12-04T10:01:35.173Z,99730.63
2022-12-04T10:02:38.199Z,99718.53
2022-12-04T10:03:39.799Z,99728.75
2022-12-04T10:04:41.328Z,99727.78
2022-12-04T10:05:58.901Z,99723.31
2022-12-04T10:07:12.881Z,99722.84
2022-12-04T10:08:26.694Z,99708.25
2022-12-04T10:09:35.067Z,99716.94
2022-12-04T10:10:39.195Z,99722.94
2022-12-04T10:11:43.061Z,99715.16
2022-12-04T10:12:53.569Z,99718.75
2022-12-04T10:14:13.623Z,99714.25
2022-12-04T10:15:34.059Z,99715.97
2022-12-04T10:16:50.529Z,99716.63
2022-12-04T10:18:48.681Z,99708.97
2022-12-04T10:20:11.222Z,99714.84
2022-12-04T10:21:18.309Z,99713.84
2022-12-04T10:22:43.086Z,99718.19
2022-12-04T10:23:53.673Z,99709.50
2022-12-04T10:25:05.572Z,99714.31
2022-12-04T10:26:14.502Z,99712.38
2022-12-04T10:27:28.141Z,99703.44
2022-12-04T10:28:33.861Z,99701.59
2022-12-04T10:29:37.898Z,99702.31
2022-12-04T10:30:43.168Z,99703.16
2022-12-04T10:31:47.179Z,99698.25
2022-12-04T10:33:00.779Z,99695.69
2022-12-04T10:34:07.984Z,99691.38
2022-12-04T10:35:27.605Z,99692.97
2022-12-04T10:36:33.473Z,99698.72
2022-12-04T10:37:40.408Z,99694.00
2022-12-04T10:39:14.494Z,99693.53
2022-12-04T10:40:23.154Z,99692.63
2022-12-04T10:41:39.630Z,99694.38
2022-12-04T10:42:49.289Z,99688.34
2022-12-04T10:43:51.132Z,99690.41
2022-12-04T10:44:53.899Z,99693.16
2022-12-04T10:45:55.532Z,99689.78
2022-12-04T10:47:00.308Z,99684.66
2022-12-04T10:48:01.874Z,99676.94
2022-12-04T10:49:12.164Z,99684.78
2022-12-04T10:50:19.062Z,99681.28
2022-12-04T10:51:21.595Z,99689.25
2022-12-04T10:52:23.218Z,99690.03
2022-12-04T10:53:30.561Z,99694.25
2022-12-04T10:54:54.190Z,99694.22
2022-12-04T10:55:55.714Z,99694.13
2022-12-04T10:57:09.423Z,99696.41
2022-12-04T10:58:18.398Z,99692.81
2022-12-04T10:59:19.998Z,99694.59
2022-12-04T11:00:35.847Z,99700.69
2022-12-04T11:01:37.572Z,99688.81
2022-12-04T11:02:39.671Z,99688.81
2022-12-04T11:03:45.037Z,99687.91
2022-12-04T11:05:24.305Z,99684.41
2022-12-04T11:06:26.893Z,99684.31
2022-12-04T11:07:34.405Z,99686.78
2022-12-04T11:08:48.641Z,99690.16
2022-12-04T11:10:08.213Z,99683.75
2022-12-04T11:11:13.677Z,99689.72
2022-12-04T11:12:21.520Z,99685.50
2022-12-04T11:13:24.437Z,99686.34
2022-12-04T11:14:25.919Z,99688.28
2022-12-04T11:15:27.869Z,99691.31
2022-12-04T11:16:34.628Z,99694.91
2022-12-04T11:17:36.248Z,99689.72
2022-12-04T11:18:50.233Z,99695.69
2022-12-04T11:20:30.012Z,99685.31
2022-12-04T11:21:32.253Z,99691.31
2022-12-04T11:22:47.907Z,99685.31
2022-12-04T11:23:51.243Z,99689.66
2022-12-04T11:24:56.456Z,99689.78
2022-12-04T11:26:05.486Z,99687.13
2022-12-04T11:27:16.367Z,99688.81
2022-12-04T11:28:40.754Z,99692.03
2022-12-04T11:29:46.247Z,99693.53
2022-12-04T11:30:51.875Z,99681.41
2022-12-04T11:31:55.479Z,99691.13
2022-12-04T11:32:57.668Z,99687.47
2022-12-04T11:34:15.621Z,99693.28
2022-12-04T11:35:29.288Z,99700.00
2022-12-04T11:36:41.503Z,99699.09
2022-12-04T11:37:53.914Z,99700.56
2022-12-04T11:39:06.599Z,99697.97
2022-12-04T11:40:18.672Z,99696.00
2022-12-04T11:41:31.832Z,99700.22
2022-12-04T11:42:33.438Z,99694.13
2022-12-04T11:43:35.226Z,99699.31
2022-12-04T11:44:36.735Z,99700.44
2022-12-04T11:45:38.828Z,99703.94
2022-12-04T11:46:40.356Z,99706.53
2022-12-04T11:47:52.400Z,99704.91
2022-12-04T11:48:54.088Z,99702.41
2022-12-04T11:50:03.258Z,99699.03
2022-12-04T11:51:25.649Z,99695.44
2022-12-04T11:52:38.290Z,99687.53
2022-12-04T11:53:47.991Z,99686.06
2022-12-04T11:55:17.645Z,99683.03
2022-12-04T11:56:29.137Z,99685.56
2022-12-04T11:57:38.924Z,99684.50
2022-12-04T11:59:17.766Z,99677.56
2022-12-04T12:00:21.634Z,99681.13
2022-12-04T12:02:11.071Z,99679.44
2022-12-04T12:03:23.610Z,99677.78
2022-12-04T12:04:57.209Z,99680.22
2022-12-04T12:06:37.255Z,99687.81
2022-12-04T12:07:50.842Z,99673.34
2022-12-04T12:09:33.238Z,99685.34
2022-12-04T12:10:54.964Z,99687.03
2022-12-04T12:12:05.322Z,99686.19
2022-12-04T12:13:19.174Z,99685.00
2022-12-04T12:14:47.067Z,99679.75
2022-12-04T12:16:33.443Z,99678.91
2022-12-04T12:17:49.770Z,99682.81
2022-12-04T12:19:22.231Z,99688.88
2022-12-04T12:20:23.671Z,99683.69
2022-12-04T12:21:39.375Z,99684.84
2022-12-04T12:22:48.718Z,99682.00
2022-12-04T12:24:03.510Z,99684.50
2022-12-04T12:25:21.357Z,99683.72
2022-12-04T12:26:34.298Z,99690.41
2022-12-04T12:27:57.100Z,99690.56
2022-12-04T12:29:27.124Z,99688.88
2022-12-04T12:30:52.362Z,99690.56
2022-12-04T12:32:15.000Z,99683.22
2022-12-04T12:33:28.876Z,99683.94
2022-12-04T12:34:35.791Z,99683.13
2022-12-04T12:35:57.683Z,99679.59
2022-12-04T12:37:02.226Z,99678.84
2022-12-04T12:38:09.942Z,99683.88
2022-12-04T12:39:19.865Z,99678.84
2022-12-04T12:40:36.243Z,99675.19
2022-12-04T12:41:45.540Z,99675.94
2022-12-04T12:42:57.988Z,99673.34
2022-12-04T12:44:09.888Z,99671.66
2022-12-04T12:45:40.260Z,99671.59
2022-12-04T12:46:49.165Z,99662.19
2022-12-04T12:47:55.093Z,99670.53
2022-12-04T12:49:07.151Z,99668.56
2022-12-04T12:50:43.838Z,99664.28